Time;durP1;ratioP1;P1;durP2;ratioP2;P2;SDS_P1;SDS_P2;PMS_P1;PMS_P2;Temp;Humidity;BMP_temperature;BMP_pressure;BME280_temperature;BME280_humidity;BME280_pressure;Samples;Min_cycle;Max_cycle;Signal;HPM_P1;HPM_P2
2022/03/27 00:00:27;;;;;;;19.77;12.57;;;10.20;53.30;;;;;;5014140;28;20453;-50
2022/03/27 00:02:56;;;;;;;18.13;11.90;;;10.10;53.40;;;;;;5013984;28;20473;-50
2022/03/27 00:05:23;;;;;;;19.07;11.20;;;10.00;53.30;;;;;;5013708;28;20921;-50
2022/03/27 00:07:51;;;;;;;19.93;11.80;;;10.00;53.50;;;;;;5013774;28;20490;-50
2022/03/27 00:10:18;;;;;;;17.30;11.53;;;9.90;54.60;;;;;;5014071;28;20525;-50
2022/03/27 00:12:45;;;;;;;18.93;11.87;;;10.00;54.20;;;;;;5013768;28;20961;-51
2022/03/27 00:15:13;;;;;;;19.27;12.50;;;10.00;54.30;;;;;;5013830;28;20447;-50
2022/03/27 00:17:41;;;;;;;19.90;13.00;;;10.10;54.40;;;;;;5013682;28;20974;-50
2022/03/27 00:20:09;;;;;;;19.33;13.80;;;10.10;54.60;;;;;;5013808;28;20535;-52
2022/03/27 00:22:38;;;;;;;25.00;13.87;;;10.10;54.20;;;;;;5013880;28;20539;-51
2022/03/27 00:25:07;;;;;;;20.17;13.20;;;10.10;54.20;;;;;;5013709;28;20459;-49
2022/03/27 00:27:35;;;;;;;24.20;12.37;;;10.10;54.90;;;;;;5013265;28;20475;-51
2022/03/27 00:30:04;;;;;;;22.60;12.70;;;9.90;55.60;;;;;;5013857;28;20447;-50
2022/03/27 00:32:32;;;;;;;19.03;11.00;;;9.90;55.80;;;;;;5013502;28;20478;-50
2022/03/27 00:34:59;;;;;;;22.30;12.83;;;9.90;56.20;;;;;;5013360;28;20534;-49
2022/03/27 00:37:27;;;;;;;20.20;12.60;;;9.90;56.10;;;;;;5013635;28;20489;-50
2022/03/27 00:39:54;;;;;;;18.23;11.63;;;9.90;56.40;;;;;;5013713;28;20993;-50
2022/03/27 00:42:21;;;;;;;20.67;12.63;;;9.90;56.40;;;;;;5013108;28;20934;-50
2022/03/27 00:44:48;;;;;;;20.23;12.43;;;9.90;56.40;;;;;;5013408;28;20554;-50
2022/03/27 00:47:15;;;;;;;19.13;11.00;;;9.80;56.40;;;;;;5013546;28;20526;-50
2022/03/27 00:49:44;;;;;;;20.67;13.47;;;9.60;56.50;;;;;;5013452;28;20447;-50
2022/03/27 00:52:11;;;;;;;19.00;11.10;;;9.50;56.70;;;;;;5013231;28;20574;-50
2022/03/27 00:54:38;;;;;;;23.73;12.97;;;9.60;57.00;;;;;;5013335;28;20937;-50
2022/03/27 00:57:06;;;;;;;17.03;12.37;;;9.60;57.20;;;;;;5013107;28;20467;-50
2022/03/27 00:59:33;;;;;;;20.30;12.77;;;9.60;57.20;;;;;;5013133;28;20971;-49
2022/03/27 01:02:01;;;;;;;28.07;12.60;;;9.50;56.80;;;;;;5013287;28;20810;-50
2022/03/27 01:04:29;;;;;;;23.43;13.00;;;9.50;57.10;;;;;;5013688;28;20454;-50
2022/03/27 01:06:58;;;;;;;18.10;12.10;;;9.40;57.30;;;;;;5016023;28;20483;-49
2022/03/27 01:09:36;;;;;;;19.20;11.93;;;9.30;57.00;;;;;;5016849;28;20992;-49
2022/03/27 01:12:22;;;;;;;22.40;14.10;;;9.30;57.40;;;;;;5016899;28;20969;-49
2022/03/27 01:14:49;;;;;;;19.43;13.83;;;9.30;57.90;;;;;;5016921;28;20439;-49
2022/03/27 01:17:18;;;;;;;21.17;11.83;;;9.40;57.80;;;;;;5016703;28;20554;-49
2022/03/27 01:19:52;;;;;;;20.93;14.03;;;9.40;57.50;;;;;;5016957;28;20501;-49
2022/03/27 01:22:22;;;;;;;25.33;13.20;;;9.40;57.90;;;;;;5016893;28;20443;-49
2022/03/27 01:24:51;;;;;;;21.33;13.00;;;9.20;57.90;;;;;;5017042;28;20447;-49
2022/03/27 01:27:18;;;;;;;24.20;13.60;;;9.30;58.50;;;;;;5016475;28;20475;-49
2022/03/27 01:29:46;;;;;;;23.77;13.37;;;9.20;58.50;;;;;;5016518;28;20461;-49
2022/03/27 01:32:14;;;;;;;26.40;14.13;;;9.10;58.70;;;;;;5016736;28;20981;-49
2022/03/27 01:34:44;;;;;;;19.90;13.00;;;9.20;58.60;;;;;;5016399;28;20451;-49
2022/03/27 01:37:13;;;;;;;20.10;13.10;;;9.10;59.00;;;;;;5016459;28;20573;-49
2022/03/27 01:39:42;;;;;;;24.00;15.00;;;9.00;58.40;;;;;;5016688;28;20446;-49
2022/03/27 01:42:09;;;;;;;22.27;13.00;;;9.00;58.80;;;;;;5016589;28;20469;-49
2022/03/27 01:44:36;;;;;;;20.60;13.67;;;9.00;59.20;;;;;;5016548;28;20451;-49
2022/03/27 01:47:04;;;;;;;17.20;10.90;;;8.90;59.50;;;;;;5016159;28;20553;-49
2022/03/27 01:49:32;;;;;;;23.73;14.17;;;9.00;60.10;;;;;;5016624;28;20454;-49
2022/03/27 01:51:59;;;;;;;23.63;13.37;;;9.00;59.90;;;;;;5016314;28;20482;-49
2022/03/27 01:54:26;;;;;;;24.00;13.10;;;8.90;59.40;;;;;;5016344;28;20534;-49
2022/03/27 01:56:55;;;;;;;18.53;12.43;;;8.90;60.40;;;;;;5016046;28;20475;-49
2022/03/27 01:59:22;;;;;;;25.20;13.50;;;8.80;60.50;;;;;;5016050;28;20963;-49
2022/03/27 02:01:50;;;;;;;26.90;13.00;;;8.80;60.60;;;;;;5015876;28;20447;-49
2022/03/27 02:04:17;;;;;;;23.00;13.27;;;8.90;60.70;;;;;;5015967;28;20573;-49
2022/03/27 02:06:44;;;;;;;20.30;12.70;;;8.90;61.40;;;;;;5015781;28;21017;-49
2022/03/27 02:09:12;;;;;;;24.10;14.23;;;8.90;61.00;;;;;;5014917;28;20926;-49
2022/03/27 02:11:40;;;;;;;22.67;13.27;;;8.90;61.10;;;;;;5015774;28;20989;-49
2022/03/27 02:14:09;;;;;;;28.20;13.00;;;8.90;61.20;;;;;;5015949;28;20443;-49
2022/03/27 02:16:36;;;;;;;21.20;13.20;;;8.90;60.90;;;;;;5015393;28;20451;-49
2022/03/27 02:19:06;;;;;;;29.57;14.00;;;8.90;61.00;;;;;;5015036;28;20450;-49
2022/03/27 02:21:34;;;;;;;24.77;14.10;;;8.70;61.40;;;;;;5015651;28;20451;-49
2022/03/27 02:24:03;;;;;;;20.83;13.80;;;8.60;61.90;;;;;;5015785;28;20465;-49
2022/03/27 02:26:30;;;;;;;31.60;13.53;;;8.70;62.10;;;;;;5015740;28;20451;-49
2022/03/27 02:28:57;;;;;;;23.40;13.10;;;8.70;62.30;;;;;;5015551;28;20934;-49
2022/03/27 02:31:26;;;;;;;22.33;13.07;;;8.50;62.80;;;;;;5015573;28;20450;-49
2022/03/27 02:33:53;;;;;;;19.70;13.10;;;8.40;62.70;;;;;;5015354;28;20443;-49
2022/03/27 02:36:20;;;;;;;21.27;13.53;;;8.40;63.20;;;;;;5015512;28;20451;-49
2022/03/27 02:38:47;;;;;;;23.67;12.83;;;8.40;63.70;;;;;;5015449;28;20467;-49
2022/03/27 02:41:15;;;;;;;23.80;12.60;;;8.30;64.20;;;;;;5015267;28;20458;-48
2022/03/27 02:43:42;;;;;;;31.30;15.60;;;8.40;64.40;;;;;;5015466;28;20557;-49
2022/03/27 02:46:09;;;;;;;21.63;14.77;;;8.40;64.10;;;;;;5015093;28;20942;-48
2022/03/27 02:48:38;;;;;;;27.50;14.80;;;8.40;64.70;;;;;;5014953;28;20477;-49
2022/03/27 02:51:05;;;;;;;23.80;12.23;;;8.30;64.00;;;;;;5015401;28;20852;-49
2022/03/27 02:53:32;;;;;;;31.43;15.90;;;8.30;63.90;;;;;;5015179;28;20490;-49
2022/03/27 02:55:59;;;;;;;17.67;12.73;;;8.30;64.50;;;;;;5014904;28;20910;-49
2022/03/27 02:58:27;;;;;;;20.03;14.60;;;8.40;65.30;;;;;;5015188;28;20879;-49
2022/03/27 03:00:54;;;;;;;22.77;15.30;;;8.40;65.80;;;;;;5014879;28;20573;-49
2022/03/27 03:03:22;;;;;;;23.50;15.20;;;8.30;65.10;;;;;;5014735;28;20447;-49
2022/03/27 03:05:51;;;;;;;23.17;13.97;;;8.40;65.10;;;;;;5014888;28;20513;-49
2022/03/27 03:08:19;;;;;;;25.07;15.13;;;8.40;65.30;;;;;;5014792;28;20494;-49
2022/03/27 03:10:46;;;;;;;23.70;14.33;;;8.30;65.60;;;;;;5014686;28;20457;-49
2022/03/27 03:13:14;;;;;;;20.53;13.77;;;8.30;64.90;;;;;;5014349;28;20483;-49
2022/03/27 03:15:43;;;;;;;18.57;13.80;;;8.20;65.30;;;;;;5014736;28;20457;-48
2022/03/27 03:18:11;;;;;;;25.27;13.87;;;8.20;66.40;;;;;;5014451;28;20498;-49
2022/03/27 03:20:39;;;;;;;22.07;12.60;;;8.20;66.80;;;;;;5014698;28;20474;-49
2022/03/27 03:23:08;;;;;;;27.13;15.00;;;8.10;67.30;;;;;;5014388;28;20465;-49
2022/03/27 03:25:35;;;;;;;31.73;14.03;;;8.00;67.90;;;;;;5014334;28;20938;-48
2022/03/27 03:28:02;;;;;;;32.83;13.90;;;7.90;68.00;;;;;;5014305;28;20881;-49
2022/03/27 03:30:29;;;;;;;24.80;14.33;;;7.90;68.60;;;;;;5014350;28;20477;-49
2022/03/27 03:32:57;;;;;;;19.27;14.03;;;7.90;68.80;;;;;;5014465;28;20482;-49
2022/03/27 03:35:24;;;;;;;24.63;14.63;;;7.90;69.60;;;;;;5014471;28;20451;-48
2022/03/27 03:37:51;;;;;;;23.80;14.77;;;7.90;68.90;;;;;;5014539;28;20989;-49
2022/03/27 03:40:19;;;;;;;25.03;13.10;;;7.90;69.50;;;;;;5014408;28;20447;-49
2022/03/27 03:42:47;;;;;;;18.47;14.10;;;7.90;69.40;;;;;;5013961;28;20942;-49
2022/03/27 03:45:14;;;;;;;16.43;13.03;;;7.90;69.60;;;;;;5014139;28;20447;-49
2022/03/27 03:47:41;;;;;;;22.47;14.37;;;7.80;69.50;;;;;;5014078;28;20477;-49
2022/03/27 03:50:10;;;;;;;20.30;13.20;;;7.90;68.80;;;;;;5014259;28;20490;-49
2022/03/27 03:52:37;;;;;;;23.87;13.67;;;7.90;70.10;;;;;;5014362;28;20837;-49
2022/03/27 03:55:04;;;;;;;21.80;13.33;;;7.90;70.80;;;;;;5014312;28;20541;-49
2022/03/27 03:57:33;;;;;;;24.70;14.33;;;7.90;70.80;;;;;;5013722;28;20479;-49
2022/03/27 04:00:00;;;;;;;22.53;13.73;;;7.90;70.90;;;;;;5014303;28;20451;-49
2022/03/27 04:02:27;;;;;;;22.70;14.80;;;7.90;71.30;;;;;;5013995;28;20439;-48
2022/03/27 04:04:54;;;;;;;20.87;14.00;;;7.90;70.90;;;;;;5013692;28;20458;-48
2022/03/27 04:07:21;;;;;;;25.13;15.83;;;7.70;70.90;;;;;;5013917;28;20510;-48
2022/03/27 04:09:48;;;;;;;19.33;13.97;;;7.50;71.40;;;;;;5013587;28;20493;-49
2022/03/27 04:12:15;;;;;;;26.73;13.43;;;7.40;72.30;;;;;;5013720;28;20486;-49
2022/03/27 04:14:44;;;;;;;18.37;13.27;;;7.40;72.50;;;;;;5013899;28;20454;-49
2022/03/27 04:17:11;;;;;;;20.57;13.90;;;7.60;73.60;;;;;;5013852;28;20490;-49
2022/03/27 04:19:40;;;;;;;24.87;14.73;;;7.60;72.50;;;;;;5013887;28;20545;-49
2022/03/27 04:22:08;;;;;;;27.17;16.20;;;7.30;72.80;;;;;;5013876;28;20494;-48
2022/03/27 04:24:35;;;;;;;15.20;12.67;;;7.30;73.20;;;;;;5013614;28;21013;-49
2022/03/27 04:27:02;;;;;;;26.40;14.67;;;7.20;73.80;;;;;;5013339;28;21003;-49
2022/03/27 04:29:29;;;;;;;24.33;14.17;;;7.30;74.00;;;;;;5013680;28;20447;-49
2022/03/27 04:31:58;;;;;;;25.73;13.80;;;7.40;73.50;;;;;;5013840;28;20447;-49
2022/03/27 04:34:25;;;;;;;23.90;13.83;;;7.40;74.70;;;;;;5013302;28;20490;-49
2022/03/27 04:36:53;;;;;;;22.03;13.73;;;7.50;74.30;;;;;;5013289;28;20919;-49
2022/03/27 04:39:20;;;;;;;19.27;13.60;;;7.50;73.70;;;;;;5013641;28;20538;-49
2022/03/27 04:41:47;;;;;;;22.90;14.33;;;7.50;75.10;;;;;;5016150;28;20457;-49
2022/03/27 04:44:14;;;;;;;24.33;14.37;;;7.50;75.00;;;;;;5017515;28;20469;-49
2022/03/27 04:46:41;;;;;;;25.43;15.23;;;7.30;75.70;;;;;;5017413;28;20451;-49
2022/03/27 04:49:10;;;;;;;23.37;12.83;;;7.30;75.50;;;;;;5017698;28;20808;-49
2022/03/27 04:51:37;;;;;;;26.03;14.93;;;7.30;76.50;;;;;;5017520;28;20451;-49
2022/03/27 04:54:04;;;;;;;24.63;14.23;;;7.20;76.80;;;;;;5017423;28;20479;-49
2022/03/27 04:56:32;;;;;;;26.97;14.20;;;7.20;77.40;;;;;;5017616;28;20454;-49
2022/03/27 04:58:59;;;;;;;22.23;13.97;;;7.20;77.80;;;;;;5017362;28;20494;-48
2022/03/27 05:01:26;;;;;;;21.73;14.77;;;7.20;77.70;;;;;;5017119;28;20436;-49
2022/03/27 05:03:53;;;;;;;22.97;13.80;;;7.20;78.10;;;;;;5017397;28;20443;-49
2022/03/27 05:06:22;;;;;;;27.20;14.03;;;7.30;78.20;;;;;;5017053;28;20811;-49
2022/03/27 05:08:51;;;;;;;20.27;13.43;;;7.30;78.20;;;;;;5016850;28;20851;-49
2022/03/27 05:11:18;;;;;;;22.00;13.80;;;7.30;78.10;;;;;;5017043;28;20981;-49
2022/03/27 05:13:46;;;;;;;18.40;13.80;;;7.30;77.90;;;;;;5017060;28;20479;-49
2022/03/27 05:16:13;;;;;;;20.60;13.60;;;7.30;78.40;;;;;;5017078;28;20864;-49
2022/03/27 05:18:40;;;;;;;23.87;13.40;;;7.30;76.90;;;;;;5017223;28;20549;-49
2022/03/27 05:21:07;;;;;;;18.13;12.70;;;7.30;77.40;;;;;;5016760;28;20459;-48
2022/03/27 05:23:35;;;;;;;21.97;14.00;;;7.30;77.30;;;;;;5016667;28;20971;-49
2022/03/27 05:26:03;;;;;;;22.80;14.50;;;7.30;79.20;;;;;;5016604;28;20465;-49
2022/03/27 05:28:30;;;;;;;22.93;14.57;;;7.30;79.10;;;;;;5016493;28;20474;-49
2022/03/27 05:30:57;;;;;;;28.80;15.50;;;7.30;79.50;;;;;;5016846;28;20474;-48
2022/03/27 05:33:25;;;;;;;23.17;13.97;;;7.30;79.00;;;;;;5016616;28;20567;-49
2022/03/27 05:35:53;;;;;;;24.50;15.03;;;7.20;78.20;;;;;;5016860;28;20848;-49
2022/03/27 05:38:20;;;;;;;24.63;13.10;;;7.20;79.50;;;;;;5016805;28;20478;-49
2022/03/27 05:40:48;;;;;;;23.50;14.20;;;7.20;80.20;;;;;;5016576;28;20455;-49
2022/03/27 05:43:16;;;;;;;21.50;14.57;;;7.20;80.40;;;;;;5016570;28;20534;-49
2022/03/27 05:45:43;;;;;;;25.23;14.10;;;7.10;80.80;;;;;;5016537;28;20486;-49
2022/03/27 05:48:12;;;;;;;23.03;13.20;;;7.00;80.90;;;;;;5016123;28;21003;-49
2022/03/27 05:50:39;;;;;;;21.67;13.90;;;7.00;81.20;;;;;;5016572;28;20457;-49
2022/03/27 05:53:06;;;;;;;23.80;14.27;;;7.00;81.40;;;;;;5016145;28;20482;-49
2022/03/27 05:55:34;;;;;;;22.90;13.40;;;7.10;81.70;;;;;;5016293;28;20453;-49
2022/03/27 05:58:02;;;;;;;23.23;13.40;;;7.10;81.80;;;;;;5016424;28;20544;-48
2022/03/27 06:00:33;;;;;;;22.70;14.70;;;7.10;82.10;;;;;;5016235;28;20880;-49
2022/03/27 06:03:01;;;;;;;20.37;14.70;;;7.20;81.90;;;;;;5016053;28;20482;-49
2022/03/27 06:05:28;;;;;;;20.33;13.30;;;7.20;82.60;;;;;;5016263;28;20451;-49
2022/03/27 06:07:56;;;;;;;25.10;14.60;;;7.20;83.00;;;;;;5015816;28;20487;-49
2022/03/27 06:10:25;;;;;;;20.00;14.00;;;7.30;82.90;;;;;;5015976;28;20914;-50
2022/03/27 06:12:53;;;;;;;23.60;16.40;;;7.20;83.20;;;;;;5015611;28;20483;-49
2022/03/27 06:15:22;;;;;;;23.03;14.90;;;7.30;82.70;;;;;;5015754;28;20930;-49
2022/03/27 06:17:51;;;;;;;18.67;14.20;;;7.40;82.80;;;;;;5015848;28;20555;-49
2022/03/27 06:20:20;;;;;;;19.80;15.23;;;7.50;82.20;;;;;;5015744;28;20934;-49
2022/03/27 06:22:47;;;;;;;28.63;15.33;;;7.50;81.90;;;;;;5016107;28;20455;-48
2022/03/27 06:25:16;;;;;;;23.73;14.70;;;7.50;82.00;;;;;;5015855;28;20447;-49
2022/03/27 06:27:46;;;;;;;27.53;15.93;;;7.40;81.80;;;;;;5015620;28;20509;-49
2022/03/27 06:30:15;;;;;;;18.23;13.77;;;7.50;81.90;;;;;;5015854;28;20458;-49
2022/03/27 06:32:44;;;;;;;29.83;16.23;;;7.60;81.80;;;;;;5015261;28;20875;-49
2022/03/27 06:35:12;;;;;;;25.53;14.03;;;7.60;81.10;;;;;;5015783;28;20451;-49
2022/03/27 06:37:41;;;;;;;26.40;14.90;;;7.60;81.20;;;;;;5015718;28;20479;-49
2022/03/27 06:40:12;;;;;;;21.53;16.27;;;7.70;81.00;;;;;;5015392;28;20567;-49
2022/03/27 06:42:40;;;;;;;17.90;13.40;;;7.70;80.10;;;;;;5015302;28;20489;-49
2022/03/27 06:45:10;;;;;;;24.87;14.13;;;7.70;81.10;;;;;;5015245;28;20452;-49
2022/03/27 06:47:38;;;;;;;22.73;14.37;;;7.90;81.40;;;;;;5015359;28;20553;-49
2022/03/27 06:50:08;;;;;;;24.27;15.60;;;8.00;81.20;;;;;;5015309;28;20446;-49
2022/03/27 06:52:36;;;;;;;21.47;16.30;;;8.10;80.90;;;;;;5015339;28;20447;-49
2022/03/27 06:55:04;;;;;;;24.20;16.17;;;8.30;81.00;;;;;;5014831;28;20499;-48
2022/03/27 06:57:32;;;;;;;22.90;14.57;;;8.40;79.90;;;;;;5015208;28;20995;-49
2022/03/27 07:05:30;;;;;;;27.03;15.97;;;8.60;77.50;;;;;;5014673;28;20446;-49
2022/03/27 07:07:58;;;;;;;21.40;14.87;;;8.80;77.00;;;;;;5014704;28;20487;-49
2022/03/27 07:10:25;;;;;;;28.73;15.53;;;8.80;77.90;;;;;;5014691;28;20903;-50
2022/03/27 07:12:52;;;;;;;22.47;14.73;;;8.90;76.90;;;;;;5014700;28;20537;-49
2022/03/27 07:15:20;;;;;;;23.60;15.07;;;9.00;77.40;;;;;;5014557;28;20462;-49
2022/03/27 07:17:49;;;;;;;22.53;15.77;;;9.00;77.50;;;;;;5014889;28;20856;-49
2022/03/27 07:20:20;;;;;;;26.60;16.33;;;9.10;76.10;;;;;;5014703;28;20486;-49
2022/03/27 07:22:48;;;;;;;21.30;14.43;;;9.10;76.20;;;;;;5014642;28;20787;-49
2022/03/27 07:25:16;;;;;;;21.70;15.07;;;9.30;75.50;;;;;;5014328;28;20454;-49
2022/03/27 07:27:43;;;;;;;33.50;16.67;;;9.30;76.30;;;;;;5014404;28;20533;-49
2022/03/27 07:30:11;;;;;;;20.27;15.23;;;9.40;76.50;;;;;;5014296;28;20451;-49
2022/03/27 07:32:40;;;;;;;28.50;16.03;;;9.40;76.30;;;;;;5014531;28;20813;-50
2022/03/27 07:35:09;;;;;;;27.07;16.30;;;9.60;75.60;;;;;;5014576;28;20505;-49
2022/03/27 07:37:36;;;;;;;25.03;16.63;;;9.70;76.20;;;;;;5014271;28;20537;-49
2022/03/27 07:40:08;;;;;;;23.70;15.57;;;9.80;74.20;;;;;;5014326;28;20447;-49
2022/03/27 07:42:35;;;;;;;26.03;16.03;;;10.00;73.00;;;;;;5014140;28;20438;-49
2022/03/27 07:45:03;;;;;;;25.47;17.30;;;10.10;73.50;;;;;;5014220;28;20453;-49
2022/03/27 07:47:31;;;;;;;26.13;17.03;;;10.20;73.20;;;;;;5014007;28;20507;-49
2022/03/27 07:49:59;;;;;;;23.30;17.27;;;10.30;74.20;;;;;;5014391;28;20514;-49
2022/03/27 07:52:26;;;;;;;26.37;16.60;;;10.40;74.40;;;;;;5014566;28;20451;-49
2022/03/27 07:54:54;;;;;;;24.03;16.47;;;10.40;72.80;;;;;;5014046;28;20486;-48
2022/03/27 07:57:22;;;;;;;28.60;17.37;;;10.50;72.80;;;;;;5013787;28;20471;-49
2022/03/27 07:59:50;;;;;;;21.90;15.10;;;10.50;72.40;;;;;;5013941;28;21007;-49
2022/03/27 08:02:18;;;;;;;23.70;16.23;;;10.60;72.50;;;;;;5014044;28;20458;-50
2022/03/27 08:04:46;;;;;;;21.13;13.87;;;10.60;71.60;;;;;;5013656;28;20956;-50
2022/03/27 08:07:13;;;;;;;23.80;17.70;;;10.70;70.60;;;;;;5013822;28;20485;-49
2022/03/27 08:09:40;;;;;;;24.80;14.27;;;10.80;71.40;;;;;;5013788;28;20881;-49
2022/03/27 08:12:09;;;;;;;26.97;17.00;;;10.80;71.20;;;;;;5013524;28;20451;-49
2022/03/27 08:14:38;;;;;;;18.53;12.43;;;10.80;69.80;;;;;;5013874;28;20834;-49
2022/03/27 08:17:06;;;;;;;21.83;14.53;;;10.90;71.30;;;;;;5013827;28;20549;-49
2022/03/27 08:19:33;;;;;;;30.43;15.03;;;10.90;71.70;;;;;;5013569;28;20451;-50
2022/03/27 08:22:01;;;;;;;22.23;15.40;;;11.00;69.70;;;;;;5013916;28;20455;-49
2022/03/27 08:24:28;;;;;;;17.90;15.67;;;11.00;70.40;;;;;;5013165;28;20477;-49
2022/03/27 08:27:00;;;;;;;24.93;16.47;;;11.00;70.40;;;;;;5013480;28;20563;-49
2022/03/27 08:29:29;;;;;;;22.90;15.60;;;11.20;69.10;;;;;;5013400;28;20427;-49
2022/03/27 08:32:00;;;;;;;21.83;14.97;;;11.40;70.50;;;;;;5013760;28;20451;-49
2022/03/27 08:34:29;;;;;;;23.77;15.50;;;11.60;70.00;;;;;;5013625;28;20513;-49
2022/03/27 08:36:57;;;;;;;22.17;15.07;;;11.60;69.00;;;;;;5013492;28;20483;-49
2022/03/27 08:39:24;;;;;;;22.00;14.23;;;11.70;69.40;;;;;;5013664;28;20451;-49
2022/03/27 08:41:54;;;;;;;25.63;14.43;;;11.80;68.90;;;;;;5013201;28;20486;-49
2022/03/27 08:44:23;;;;;;;18.00;12.70;;;12.00;68.40;;;;;;5013336;28;20524;-49
2022/03/27 08:46:52;;;;;;;22.50;15.63;;;12.10;67.80;;;;;;5013563;28;20534;-50
2022/03/27 08:49:43;;;;;;;17.43;13.30;;;12.20;68.00;;;;;;5013572;28;20454;-49
2022/03/27 08:52:23;;;;;;;18.37;12.93;;;12.20;67.10;;;;;;5013599;28;20427;-49
2022/03/27 08:54:55;;;;;;;18.00;11.97;;;12.30;67.30;;;;;;5013546;28;20467;-49
2022/03/27 08:57:25;;;;;;;17.00;12.77;;;12.30;66.20;;;;;;5013278;28;20471;-49
2022/03/27 08:59:54;;;;;;;21.57;14.50;;;12.50;68.10;;;;;;5013046;28;20929;-49
2022/03/27 09:02:23;;;;;;;18.23;12.63;;;12.50;66.70;;;;;;5013159;28;20451;-50
2022/03/27 09:04:54;;;;;;;19.40;13.53;;;12.60;65.70;;;;;;5013363;28;20850;-49
2022/03/27 09:07:23;;;;;;;25.80;13.40;;;12.80;65.40;;;;;;5013402;28;20487;-50
2022/03/27 09:09:50;;;;;;;17.10;12.47;;;12.80;64.90;;;;;;5012831;28;20517;-49
2022/03/27 09:12:20;;;;;;;16.27;14.03;;;13.00;65.70;;;;;;5013047;28;20929;-50
2022/03/27 09:14:47;;;;;;;19.30;12.40;;;13.20;65.50;;;;;;5013021;28;20809;-49
2022/03/27 09:17:14;;;;;;;21.40;13.40;;;13.70;64.80;;;;;;5012791;28;20474;-49
2022/03/27 09:19:44;;;;;;;17.60;12.73;;;14.60;63.10;;;;;;5012897;28;20806;-49
2022/03/27 09:22:18;;;;;;;21.93;13.90;;;15.70;60.30;;;;;;5012825;28;20945;-50
2022/03/27 09:24:47;;;;;;;20.77;13.57;;;16.80;58.00;;;;;;5013158;28;20427;-49
2022/03/27 09:27:15;;;;;;;21.63;14.00;;;17.90;57.30;;;;;;5014623;28;20838;-50
2022/03/27 09:30:06;;;;;;;23.27;13.37;;;18.70;55.50;;;;;;5016971;28;20458;-50
2022/03/27 09:32:35;;;;;;;17.07;11.90;;;18.90;54.00;;;;;;5016872;28;20431;-50
2022/03/27 09:35:06;;;;;;;20.20;14.43;;;18.70;53.80;;;;;;5016561;28;20490;-49
2022/03/27 09:37:38;;;;;;;18.73;13.90;;;19.30;52.30;;;;;;5016467;28;20480;-49
2022/03/27 09:40:09;;;;;;;20.63;14.13;;;18.90;52.50;;;;;;5016213;28;20824;-50
2022/03/27 09:42:38;;;;;;;19.70;13.10;;;19.10;52.50;;;;;;5016412;28;20427;-50
2022/03/27 09:45:13;;;;;;;17.50;12.23;;;19.90;51.50;;;;;;5016386;28;20451;-50
2022/03/27 09:47:41;;;;;;;20.33;14.00;;;20.10;50.50;;;;;;5016264;28;20467;-50
2022/03/27 09:50:10;;;;;;;22.30;15.00;;;20.70;51.30;;;;;;5016339;28;20537;-50
2022/03/27 09:52:41;;;;;;;18.87;13.17;;;21.40;50.00;;;;;;5016114;28;20457;-50
2022/03/27 09:55:09;;;;;;;17.93;12.43;;;21.40;49.70;;;;;;5016359;28;20470;-50
2022/03/27 09:57:38;;;;;;;19.80;13.97;;;21.50;49.60;;;;;;5016049;28;20475;-50
2022/03/27 10:00:18;;;;;;;25.10;13.20;;;21.80;48.20;;;;;;5016068;28;20957;-50
2022/03/27 10:02:47;;;;;;;23.50;14.73;;;21.10;47.60;;;;;;5016083;28;20431;-50
2022/03/27 10:05:15;;;;;;;19.97;12.90;;;20.80;48.90;;;;;;5016118;28;20449;-50
2022/03/27 10:07:47;;;;;;;17.97;13.27;;;21.40;49.30;;;;;;5016006;28;20483;-50
2022/03/27 10:10:16;;;;;;;15.87;13.83;;;21.70;48.50;;;;;;5016320;28;20459;-50
2022/03/27 10:12:45;;;;;;;21.07;14.70;;;21.50;48.60;;;;;;5016365;28;20458;-50
2022/03/27 10:15:14;;;;;;;24.23;12.87;;;22.10;47.80;;;;;;5015835;28;20491;-50
2022/03/27 10:17:44;;;;;;;16.27;11.80;;;22.30;48.00;;;;;;5015892;28;20467;-50
2022/03/27 10:20:13;;;;;;;23.30;14.80;;;22.20;47.00;;;;;;5016301;28;20459;-50
2022/03/27 10:22:45;;;;;;;20.53;12.67;;;22.20;47.10;;;;;;5015508;28;20451;-50
2022/03/27 10:25:14;;;;;;;20.97;12.80;;;22.80;47.00;;;;;;5015940;28;20430;-50
2022/03/27 10:27:43;;;;;;;16.30;12.50;;;22.90;46.20;;;;;;5015713;28;20617;-50
2022/03/27 10:30:12;;;;;;;21.20;13.80;;;22.90;46.40;;;;;;5015409;28;20483;-50
2022/03/27 10:32:41;;;;;;;18.13;13.07;;;23.40;47.10;;;;;;5015542;28;20451;-50
2022/03/27 10:35:27;;;;;;;25.73;13.60;;;23.10;45.60;;;;;;5015248;28;20574;-50
2022/03/27 10:38:05;;;;;;;20.53;13.70;;;23.10;45.70;;;;;;5014879;28;20475;-50
2022/03/27 10:40:39;;;;;;;25.67;14.03;;;22.60;45.20;;;;;;5014981;28;20996;-50
2022/03/27 10:43:14;;;;;;;19.93;13.20;;;22.50;45.30;;;;;;5015157;28;20431;-50
2022/03/27 10:45:41;;;;;;;23.60;14.17;;;23.00;46.40;;;;;;5014939;28;20427;-50
2022/03/27 10:48:13;;;;;;;21.20;13.80;;;23.60;45.60;;;;;;5015316;28;20559;-50
2022/03/27 10:50:52;;;;;;;20.83;13.90;;;22.70;45.50;;;;;;5014972;28;21009;-50
2022/03/27 10:53:23;;;;;;;23.67;14.33;;;22.40;45.90;;;;;;5015381;28;20547;-50
2022/03/27 10:55:54;;;;;;;19.53;14.70;;;22.80;46.20;;;;;;5014996;28;20820;-50
2022/03/27 10:58:29;;;;;;;22.50;13.90;;;22.70;45.90;;;;;;5014946;28;20466;-50
2022/03/27 11:00:57;;;;;;;17.20;13.00;;;23.60;46.00;;;;;;5015169;28;20465;-50
2022/03/27 11:03:49;;;;;;;17.13;13.10;;;23.90;45.70;;;;;;5014771;28;20519;-50
2022/03/27 11:06:23;;;;;;;16.73;12.57;;;24.30;44.80;;;;;;5015219;28;20447;-50
2022/03/27 11:08:54;;;;;;;21.23;12.60;;;24.60;45.50;;;;;;5014591;28;21028;-50
2022/03/27 11:12:04;;;;;;;20.00;12.13;;;24.80;44.70;;;;;;5014849;28;20461;-50
2022/03/27 11:15:02;;;;;;;19.23;14.80;;;25.00;44.10;;;;;;5014885;28;20586;-50
2022/03/27 11:17:38;;;;;;;16.43;12.10;;;24.90;43.90;;;;;;5014795;28;20467;-50
2022/03/27 11:20:07;;;;;;;19.60;13.00;;;25.00;44.00;;;;;;5014495;28;20457;-49
2022/03/27 11:22:53;;;;;;;20.23;12.97;;;24.80;43.90;;;;;;5014953;28;20443;-50
2022/03/27 11:25:46;;;;;;;20.70;13.57;;;24.80;43.40;;;;;;5014443;28;20446;-50
2022/03/27 11:28:14;;;;;;;18.37;12.87;;;25.00;43.80;;;;;;5013196;28;20475;-50
2022/03/27 11:31:17;;;;;;;24.93;14.73;;;24.90;43.80;;;;;;5014602;28;20446;-50
2022/03/27 11:33:45;;;;;;;19.87;13.77;;;24.80;43.40;;;;;;5014215;28;20447;-50
2022/03/27 11:36:25;;;;;;;19.67;12.83;;;24.20;43.10;;;;;;5014265;28;20489;-50
2022/03/27 11:39:01;;;;;;;25.00;12.93;;;24.30;43.50;;;;;;5014398;28;20977;-50
2022/03/27 11:41:34;;;;;;;22.90;13.80;;;25.40;42.70;;;;;;5014429;28;20514;-51
2022/03/27 11:45:06;;;;;;;15.43;12.00;;;24.80;42.40;;;;;;5014347;28;20435;-51
2022/03/27 11:47:20;;;;;;;18.03;10.50;;;25.60;43.30;;;;;;5013880;28;20901;-50
2022/03/27 11:49:49;;;;;;;19.57;11.00;;;25.60;40.70;;;;;;5014053;28;20506;-50
2022/03/27 11:52:18;;;;;;;18.40;11.50;;;25.50;39.90;;;;;;5013714;28;20443;-50
2022/03/27 11:54:47;;;;;;;19.07;11.43;;;25.00;40.50;;;;;;5014056;28;20487;-50
2022/03/27 11:57:16;;;;;;;19.47;12.93;;;25.20;40.00;;;;;;5013802;28;20553;-50
2022/03/27 11:59:46;;;;;;;14.63;12.33;;;24.90;41.70;;;;;;5014157;28;20453;-50
2022/03/27 12:02:19;;;;;;;14.40;10.03;;;25.30;41.70;;;;;;5013686;28;20470;-50
2022/03/27 12:04:54;;;;;;;17.90;10.83;;;25.70;41.60;;;;;;5014114;28;20770;-50
2022/03/27 12:07:22;;;;;;;14.97;11.67;;;26.20;39.40;;;;;;5014009;28;20946;-50
2022/03/27 12:09:59;;;;;;;20.27;10.93;;;26.40;39.10;;;;;;5013411;28;20479;-52
2022/03/27 12:12:32;;;;;;;16.27;10.03;;;26.70;39.10;;;;;;5013587;28;20446;-49
2022/03/27 12:15:02;;;;;;;18.50;11.60;;;26.20;38.90;;;;;;5013494;28;20510;-49
2022/03/27 12:17:31;;;;;;;12.37;10.33;;;26.00;37.90;;;;;;5013971;28;20467;-49
2022/03/27 12:20:05;;;;;;;15.40;10.23;;;25.60;38.80;;;;;;5013772;28;20799;-49
2022/03/27 12:22:37;;;;;;;16.30;10.70;;;26.30;38.60;;;;;;5013827;28;20435;-49
2022/03/27 12:25:10;;;;;;;14.70;10.40;;;25.40;37.80;;;;;;5013659;28;20427;-49
2022/03/27 12:30:35;;;;;;;13.63;10.00;;;26.00;38.00;;;;;;5013506;28;20415;-49
2022/03/27 12:33:03;;;;;;;17.20;10.63;;;25.50;38.10;;;;;;5013738;28;20794;-49
2022/03/27 12:35:31;;;;;;;13.67;10.60;;;25.90;37.60;;;;;;5013559;28;20573;-49
2022/03/27 12:37:59;;;;;;;17.80;10.47;;;26.10;37.90;;;;;;5013713;28;20828;-49
2022/03/27 12:40:28;;;;;;;13.80;9.50;;;26.40;38.30;;;;;;5013480;28;20533;-49
2022/03/27 12:43:10;;;;;;;12.17;10.10;;;26.50;37.20;;;;;;5013742;28;20457;-49
2022/03/27 12:45:40;;;;;;;14.17;9.40;;;25.20;35.90;;;;;;5013045;28;20831;-49
2022/03/27 12:48:16;;;;;;;15.67;10.10;;;24.90;37.40;;;;;;5012924;28;20578;-50
2022/03/27 12:50:45;;;;;;;16.40;9.70;;;25.60;37.20;;;;;;5013200;28;20474;-49
2022/03/27 12:53:14;;;;;;;15.30;10.10;;;25.10;35.70;;;;;;5013148;28;20447;-49